Time;durP1;ratioP1;P1;durP2;ratioP2;P2;SDS_P1;SDS_P2;PMS_P1;PMS_P2;Temp;Humidity;BMP_temperature;BMP_pressure;BME280_temperature;BME280_humidity;BME280_pressure;Samples;Min_cycle;Max_cycle;Signal;HPM_P1;HPM_P2
2023/06/27 00:01:06;;;;;;;;;;;;;;;;;;4973133;28;8836;-86
2023/06/27 00:03:36;;;;;;;;;;;;;;;;;;4973589;28;8508;-86
2023/06/27 00:06:04;;;;;;;;;;;;;;;;;;4973237;28;7501;-86
2023/06/27 00:08:33;;;;;;;;;;;;;;;;;;4989163;28;8934;-86
2023/06/27 00:11:00;;;;;;;;;;;;;;;;;;4972994;28;8633;-86
2023/06/27 00:13:25;;;;;;;;;;;;;;;;;;4973128;28;8504;-85
2023/06/27 00:15:52;;;;;;;;;;;;;;;;;;4973101;28;7231;-86
2023/06/27 00:18:21;;;;;;;;;;;;;;;;;;4972764;28;8883;-86
2023/06/27 00:20:48;;;;;;;;;;;;;;;;;;4972751;28;8522;-86
2023/06/27 00:23:33;;;;;;;;;;;;;;;;;;4972908;28;8999;-85
2023/06/27 00:26:03;;;;;;;;;;;;;;;;;;4973040;28;8843;-86
2023/06/27 00:28:29;;;;;;;;;;;;;;;;;;4972698;28;7594;-87
2023/06/27 00:30:54;;;;;;;;;;;;;;;;;;4972760;28;8865;-87
2023/06/27 00:33:20;;;;;;;;;;;;;;;;;;4973006;28;7320;-86
2023/06/27 00:35:46;;;;;;;;;;;;;;;;;;4972856;28;7230;-87
2023/06/27 00:38:11;;;;;;;;;;;;;;;;;;4972737;28;8635;-86
2023/06/27 00:40:37;;;;;;;;;;;;;;;;;;4972557;28;8733;-84
2023/06/27 00:43:02;;;;;;;;;;;;;;;;;;4972564;28;8721;-84
2023/06/27 00:45:29;;;;;;;;;;;;;;;;;;4972694;28;8529;-83
2023/06/27 00:47:56;;;;;;;;;;;;;;;;;;4974367;28;7442;-85
2023/06/27 00:50:26;;;;;;;;;;;;;;;;;;4976522;28;7206;-84
2023/06/27 00:52:51;;;;;;;;;;;;;;;;;;4976518;28;8630;-82
2023/06/27 00:55:17;;;;;;;;;;;;;;;;;;4976227;28;7135;-82
2023/06/27 00:57:46;;;;;;;;;;;;;;;;;;4976121;28;8528;-82
2023/06/27 01:00:13;;;;;;;;;;;;;;;;;;4977093;28;8413;-83
2023/06/27 01:02:39;;;;;;;;;;;;;;;;;;4979379;28;8519;-84
2023/06/27 01:05:06;;;;;;;;;;;;;;;;;;4979256;28;8494;-83
2023/06/27 01:07:41;;;;;;;;;;;;;;;;;;4979102;28;7273;-82
2023/06/27 01:10:18;;;;;;;;;;;;;;;;;;4995539;28;7189;-83
2023/06/27 01:12:51;;;;;;;;;;;;;;;;;;4979289;28;7130;-80
2023/06/27 01:15:17;;;;;;;;;;;;;;;;;;4979198;28;7301;-82
2023/06/27 01:17:44;;;;;;;;;;;;;;;;;;4995496;28;9117;-82
2023/06/27 01:20:12;;;;;;;;;;;;;;;;;;4979275;28;8401;-83
2023/06/27 01:22:42;;;;;;;;;;;;;;;;;;4978687;28;9194;-82
2023/06/27 01:25:11;;;;;;;;;;;;;;;;;;4978976;28;7119;-83
2023/06/27 01:27:38;;;;;;;;;;;;;;;;;;4978749;28;8803;-86
2023/06/27 01:30:04;;;;;;;;;;;;;;;;;;4979343;28;8973;-89
2023/06/27 01:32:46;;;;;;;;;;;;;;;;;;4978976;28;8776;-83
2023/06/27 01:35:11;;;;;;;;;;;;;;;;;;4978999;28;9377;-84
2023/06/27 01:37:47;;;;;;;;;;;;;;;;;;4995271;28;7205;-83
2023/06/27 01:40:14;;;;;;;;;;;;;;;;;;4978950;28;7240;-84
2023/06/27 01:42:42;;;;;;;;;;;;;;;;;;4978376;28;8537;-84
2023/06/27 01:45:10;;;;;;;;;;;;;;;;;;4978494;28;8711;-83
2023/06/27 01:47:38;;;;;;;;;;;;;;;;;;4978385;28;8719;-84
2023/06/27 01:50:04;;;;;;;;;;;;;;;;;;4994626;28;8482;-83
2023/06/27 01:52:29;;;;;;;;;;;;;;;;;;4978180;28;8613;-84
2023/06/27 01:54:56;;;;;;;;;;;;;;;;;;4978385;28;8850;-82
2023/06/27 01:57:21;;;;;;;;;;;;;;;;;;4978760;28;8889;-82
2023/06/27 01:59:47;;;;;;;;;;;;;;;;;;4978271;28;7331;-83
2023/06/27 02:02:12;;;;;;;;;;;;;;;;;;4978012;28;8491;-82
2023/06/27 02:04:38;;;;;;;;;;;;;;;;;;4978273;28;8736;-81
2023/06/27 02:07:04;;;;;;;;;;;;;;;;;;4978577;28;9083;-83
2023/06/27 02:09:29;;;;;;;;;;;;;;;;;;4978078;28;8741;-82
2023/06/27 02:11:55;;;;;;;;;;;;;;;;;;4977995;28;7230;-82
2023/06/27 02:14:20;;;;;;;;;;;;;;;;;;4978056;28;7234;-83
2023/06/27 02:16:46;;;;;;;;;;;;;;;;;;4978166;28;8439;-83
2023/06/27 02:19:11;;;;;;;;;;;;;;;;;;4978114;28;8674;-81
2023/06/27 02:21:37;;;;;;;;;;;;;;;;;;4977759;28;8616;-83
2023/06/27 02:24:03;;;;;;;;;;;;;;;;;;4977753;28;7227;-82
2023/06/27 02:26:28;;;;;;;;;;;;;;;;;;4977987;28;8472;-82
2023/06/27 02:28:54;;;;;;;;;;;;;;;;;;4977905;28;8572;-82
2023/06/27 02:31:19;;;;;;;;;;;;;;;;;;4977841;28;8756;-82
2023/06/27 02:33:45;;;;;;;;;;;;;;;;;;4977960;28;8592;-82
2023/06/27 02:36:10;;;;;;;;;;;;;;;;;;4977910;28;8494;-83
2023/06/27 02:38:36;;;;;;;;;;;;;;;;;;4977850;28;8569;-82
2023/06/27 02:41:01;;;;;;;;;;;;;;;;;;4977341;28;8461;-83
2023/06/27 02:43:27;;;;;;;;;;;;;;;;;;4977688;28;8641;-82
2023/06/27 02:45:53;;;;;;;;;;;;;;;;;;4977616;28;8306;-82
2023/06/27 02:48:18;;;;;;;;;;;;;;;;;;4977335;28;8976;-84
2023/06/27 02:50:49;;;;;;;;;;;;;;;;;;4977426;28;8715;-81
2023/06/27 02:53:15;;;;;;;;;;;;;;;;;;4977462;28;8525;-82
2023/06/27 02:55:40;;;;;;;;;;;;;;;;;;4977178;28;7216;-82
2023/06/27 02:58:06;;;;;;;;;;;;;;;;;;4977656;28;8394;-84
2023/06/27 03:00:31;;;;;;;;;;;;;;;;;;4973870;28;8738;-83
2023/06/27 03:02:57;;;;;;;;;;;;;;;;;;4973826;28;8525;-82
2023/06/27 03:05:22;;;;;;;;;;;;;;;;;;4974290;28;8632;-82
2023/06/27 03:07:48;;;;;;;;;;;;;;;;;;4974191;28;6863;-82
2023/06/27 03:10:13;;;;;;;;;;;;;;;;;;4973450;28;8541;-84
2023/06/27 03:12:39;;;;;;;;;;;;;;;;;;4973977;28;8790;-84
2023/06/27 03:15:05;;;;;;;;;;;;;;;;;;4973745;28;8835;-83
2023/06/27 03:17:32;;;;;;;;;;;;;;;;;;4974069;28;8559;-84
2023/06/27 03:19:58;;;;;;;;;;;;;;;;;;4973914;28;8550;-87
2023/06/27 03:22:24;;;;;;;;;;;;;;;;;;4973873;28;7127;-83
2023/06/27 03:24:49;;;;;;;;;;;;;;;;;;4973663;28;8435;-84
2023/06/27 03:27:17;;;;;;;;;;;;;;;;;;4974104;28;8823;-86
2023/06/27 03:29:43;;;;;;;;;;;;;;;;;;4973759;28;8518;-83
2023/06/27 03:32:10;;;;;;;;;;;;;;;;;;4973730;28;8727;-84
2023/06/27 03:34:36;;;;;;;;;;;;;;;;;;4973670;28;8921;-83
2023/06/27 03:37:02;;;;;;;;;;;;;;;;;;4973517;28;8504;-84
2023/06/27 03:39:28;;;;;;;;;;;;;;;;;;4985549;28;8663;-85
2023/06/27 03:41:54;;;;;;;;;;;;;;;;;;4992602;28;8605;-82
2023/06/27 03:44:19;;;;;;;;;;;;;;;;;;4992458;28;7206;-82
2023/06/27 03:46:45;;;;;;;;;;;;;;;;;;4992476;28;7249;-83
2023/06/27 03:49:10;;;;;;;;;;;;;;;;;;4992393;28;8511;-82
2023/06/27 03:51:39;;;;;;;;;;;;;;;;;;4992999;28;8878;-83
2023/06/27 03:54:06;;;;;;;;;;;;;;;;;;4992961;28;7290;-81
2023/06/27 03:56:32;;;;;;;;;;;;;;;;;;4992248;28;7290;-82
2023/06/27 03:58:58;;;;;;;;;;;;;;;;;;4993009;28;8509;-82
2023/06/27 04:01:23;;;;;;;;;;;;;;;;;;4992631;28;7283;-83
2023/06/27 04:03:50;;;;;;;;;;;;;;;;;;4992527;28;8425;-82
2023/06/27 04:06:16;;;;;;;;;;;;;;;;;;4992615;28;6957;-81
2023/06/27 04:08:41;;;;;;;;;;;;;;;;;;4993039;28;7221;-81
2023/06/27 04:11:06;;;;;;;;;;;;;;;;;;4992367;28;8476;-82
2023/06/27 04:13:32;;;;;;;;;;;;;;;;;;4992739;28;8756;-81
2023/06/27 04:15:58;;;;;;;;;;;;;;;;;;4992115;28;8805;-82
2023/06/27 04:18:23;;;;;;;;;;;;;;;;;;4992392;28;8493;-82
2023/06/27 04:20:49;;;;;;;;;;;;;;;;;;4992196;28;7192;-81
2023/06/27 04:23:14;;;;;;;;;;;;;;;;;;4994621;28;8456;-84
2023/06/27 04:25:44;;;;;;;;;;;;;;;;;;4996598;28;8498;-81
2023/06/27 04:28:10;;;;;;;;;;;;;;;;;;4996548;28;8411;-81
2023/06/27 04:30:35;;;;;;;;;;;;;;;;;;4996184;28;7209;-82
2023/06/27 04:33:03;;;;;;;;;;;;;;;;;;4996365;28;7231;-83
2023/06/27 04:35:28;;;;;;;;;;;;;;;;;;4992869;28;7273;-86
2023/06/27 04:37:56;;;;;;;;;;;;;;;;;;4996616;28;8478;-86
2023/06/27 04:40:22;;;;;;;;;;;;;;;;;;4984747;28;7140;-84
2023/06/27 04:42:47;;;;;;;;;;;;;;;;;;4977343;28;8783;-85
2023/06/27 04:45:13;;;;;;;;;;;;;;;;;;4977335;28;7214;-85
2023/06/27 04:47:39;;;;;;;;;;;;;;;;;;4977665;28;8737;-85
2023/06/27 04:50:05;;;;;;;;;;;;;;;;;;4977120;28;8897;-85
2023/06/27 04:52:31;;;;;;;;;;;;;;;;;;4977108;28;8518;-85
2023/06/27 04:54:56;;;;;;;;;;;;;;;;;;4985824;28;8539;-85
2023/06/27 04:57:22;;;;;;;;;;;;;;;;;;5012947;28;7451;-85
2023/06/27 04:59:48;;;;;;;;;;;;;;;;;;5013253;28;8498;-85
2023/06/27 05:02:13;;;;;;;;;;;;;;;;;;5012557;28;7111;-85
2023/06/27 05:04:39;;;;;;;;;;;;;;;;;;5013070;28;8577;-85
2023/06/27 05:07:05;;;;;;;;;;;;;;;;;;5012796;28;8486;-85
2023/06/27 05:09:30;;;;;;;;;;;;;;;;;;5002642;28;8591;-85
2023/06/27 05:11:56;;;;;;;;;;;;;;;;;;4992988;28;7230;-85
2023/06/27 05:14:21;;;;;;;;;;;;;;;;;;4994247;28;8692;-86
2023/06/27 05:16:47;;;;;;;;;;;;;;;;;;4996493;28;7118;-85
2023/06/27 05:19:12;;;;;;;;;;;;;;;;;;4996056;28;8773;-86
2023/06/27 05:21:38;;;;;;;;;;;;;;;;;;4995925;28;8620;-85
2023/06/27 05:24:05;;;;;;;;;;;;;;;;;;4994252;28;8476;-86
2023/06/27 05:26:32;;;;;;;;;;;;;;;;;;5000282;28;8844;-85
2023/06/27 05:28:59;;;;;;;;;;;;;;;;;;5012878;28;7459;-86
2023/06/27 05:31:26;;;;;;;;;;;;;;;;;;5008649;28;8483;-86
2023/06/27 05:33:52;;;;;;;;;;;;;;;;;;4992172;28;7346;-86
2023/06/27 05:36:17;;;;;;;;;;;;;;;;;;4990539;28;7108;-86
2023/06/27 05:38:43;;;;;;;;;;;;;;;;;;5001766;28;8649;-85
2023/06/27 05:41:08;;;;;;;;;;;;;;;;;;4976527;28;8814;-85
2023/06/27 05:43:34;;;;;;;;;;;;;;;;;;4995103;28;7151;-86
2023/06/27 05:46:00;;;;;;;;;;;;;;;;;;4994196;28;8514;-86
2023/06/27 05:48:25;;;;;;;;;;;;;;;;;;4992984;28;8553;-87
2023/06/27 05:50:51;;;;;;;;;;;;;;;;;;4992927;28;8374;-86
2023/06/27 05:53:16;;;;;;;;;;;;;;;;;;4993631;28;8551;-84
2023/06/27 05:55:41;;;;;;;;;;;;;;;;;;4993264;28;7119;-85
2023/06/27 05:58:07;;;;;;;;;;;;;;;;;;4993209;28;7451;-87
2023/06/27 06:00:33;;;;;;;;;;;;;;;;;;4993039;28;9006;-86
2023/06/27 06:02:58;;;;;;;;;;;;;;;;;;4993360;28;8411;-84
2023/06/27 06:05:24;;;;;;;;;;;;;;;;;;4994733;28;7235;-82
2023/06/27 06:07:50;;;;;;;;;;;;;;;;;;4994477;28;7333;-80
2023/06/27 06:10:15;;;;;;;;;;;;;;;;;;4994732;28;7203;-82
2023/06/27 06:12:43;;;;;;;;;;;;;;;;;;4994249;28;8511;-82
2023/06/27 06:15:08;;;;;;;;;;;;;;;;;;4994061;28;8401;-82
2023/06/27 06:17:34;;;;;;;;;;;;;;;;;;4993788;28;8735;-83
2023/06/27 06:20:00;;;;;;;;;;;;;;;;;;4994032;28;8806;-83
2023/06/27 06:22:26;;;;;;;;;;;;;;;;;;4993609;28;8819;-83
2023/06/27 06:24:52;;;;;;;;;;;;;;;;;;4987545;28;8592;-82
2023/06/27 06:27:17;;;;;;;;;;;;;;;;;;4983777;28;8535;-82
2023/06/27 06:29:43;;;;;;;;;;;;;;;;;;4988313;28;8554;-82
2023/06/27 06:32:08;;;;;;;;;;;;;;;;;;5000707;28;7324;-82
2023/06/27 06:34:34;;;;;;;;;;;;;;;;;;4990534;28;7542;-82
2023/06/27 06:37:00;;;;;;;;;;;;;;;;;;4990289;28;7315;-84
2023/06/27 06:39:25;;;;;;;;;;;;;;;;;;4990197;28;9382;-82
2023/06/27 06:41:51;;;;;;;;;;;;;;;;;;4990299;28;8575;-83
2023/06/27 06:44:17;;;;;;;;;;;;;;;;;;4990559;28;8827;-84
2023/06/27 06:46:43;;;;;;;;;;;;;;;;;;4980806;28;8576;-83
2023/06/27 06:49:09;;;;;;;;;;;;;;;;;;5000059;28;9296;-82
2023/06/27 06:51:35;;;;;;;;;;;;;;;;;;4993838;28;8823;-83
2023/06/27 06:54:00;;;;;;;;;;;;;;;;;;4973970;28;8808;-83
2023/06/27 06:56:25;;;;;;;;;;;;;;;;;;4996705;28;8532;-83
2023/06/27 06:58:51;;;;;;;;;;;;;;;;;;4973974;28;8513;-83
2023/06/27 07:01:16;;;;;;;;;;;;;;;;;;4985765;28;8896;-83
2023/06/27 07:03:42;;;;;;;;;;;;;;;;;;5009342;28;7259;-83
2023/06/27 07:06:08;;;;;;;;;;;;;;;;;;5006418;28;8537;-83
2023/06/27 07:08:34;;;;;;;;;;;;;;;;;;4989938;28;7354;-83
2023/06/27 07:10:59;;;;;;;;;;;;;;;;;;4990084;28;8718;-82
2023/06/27 07:13:25;;;;;;;;;;;;;;;;;;4989741;28;7241;-82
2023/06/27 07:15:50;;;;;;;;;;;;;;;;;;4995252;28;8571;-83
2023/06/27 07:18:16;;;;;;;;;;;;;;;;;;5001189;28;8876;-82
2023/06/27 07:20:41;;;;;;;;;;;;;;;;;;5008958;28;8581;-83
2023/06/27 07:23:07;;;;;;;;;;;;;;;;;;5009188;28;8503;-83
2023/06/27 07:25:32;;;;;;;;;;;;;;;;;;4996316;28;8385;-82
2023/06/27 07:27:58;;;;;;;;;;;;;;;;;;4973380;28;7131;-83
2023/06/27 07:30:23;;;;;;;;;;;;;;;;;;4973544;28;7291;-83
2023/06/27 07:32:49;;;;;;;;;;;;;;;;;;4977841;28;7332;-83
2023/06/27 07:35:14;;;;;;;;;;;;;;;;;;5004100;28;8673;-84
2023/06/27 07:37:39;;;;;;;;;;;;;;;;;;4992263;28;8689;-83
2023/06/27 07:40:07;;;;;;;;;;;;;;;;;;4973216;28;8515;-83
2023/06/27 07:42:32;;;;;;;;;;;;;;;;;;4973442;28;8586;-84
2023/06/27 07:44:58;;;;;;;;;;;;;;;;;;4977676;28;8517;-84
2023/06/27 07:47:23;;;;;;;;;;;;;;;;;;5007354;28;8596;-84
2023/06/27 07:49:49;;;;;;;;;;;;;;;;;;4987782;28;7619;-85
2023/06/27 07:52:14;;;;;;;;;;;;;;;;;;4971663;28;7507;-84
2023/06/27 07:54:40;;;;;;;;;;;;;;;;;;4971112;28;8574;-84
2023/06/27 07:57:06;;;;;;;;;;;;;;;;;;4971148;28;8546;-83
2023/06/27 07:59:31;;;;;;;;;;;;;;;;;;4972387;28;8811;-83
2023/06/27 08:01:57;;;;;;;;;;;;;;;;;;4972257;28;8492;-83
2023/06/27 08:04:22;;;;;;;;;;;;;;;;;;4977034;28;7124;-85
2023/06/27 08:06:48;;;;;;;;;;;;;;;;;;5008505;28;8703;-85
2023/06/27 08:09:13;;;;;;;;;;;;;;;;;;5008525;28;8576;-84
2023/06/27 08:11:39;;;;;;;;;;;;;;;;;;5005362;28;8425;-84
2023/06/27 08:14:04;;;;;;;;;;;;;;;;;;4987755;28;8807;-83
2023/06/27 08:16:30;;;;;;;;;;;;;;;;;;4998167;28;8530;-84
2023/06/27 08:18:55;;;;;;;;;;;;;;;;;;4996688;28;8771;-83
2023/06/27 08:21:21;;;;;;;;;;;;;;;;;;4999430;28;8547;-84
2023/06/27 08:23:46;;;;;;;;;;;;;;;;;;4999782;28;8731;-85
2023/06/27 08:26:13;;;;;;;;;;;;;;;;;;4988813;28;7233;-88
2023/06/27 08:28:39;;;;;;;;;;;;;;;;;;4989268;28;7373;-86
2023/06/27 08:31:04;;;;;;;;;;;;;;;;;;4989293;28;8592;-86
2023/06/27 08:33:30;;;;;;;;;;;;;;;;;;4989182;28;7242;-88
2023/06/27 08:35:55;;;;;;;;;;;;;;;;;;4988851;28;6950;-87
2023/06/27 08:38:21;;;;;;;;;;;;;;;;;;4989201;28;8809;-88
2023/06/27 08:40:48;;;;;;;;;;;;;;;;;;4988906;28;8496;-86
2023/06/27 08:43:14;;;;;;;;;;;;;;;;;;4988463;28;8513;-83
2023/06/27 08:45:39;;;;;;;;;;;;;;;;;;4994458;28;8523;-83
2023/06/27 08:48:06;;;;;;;;;;;;;;;;;;4996443;28;7126;-85
2023/06/27 08:50:34;;;;;;;;;;;;;;;;;;4972769;28;8902;-83
2023/06/27 08:53:04;;;;;;;;;;;;;;;;;;4972554;28;8660;-83
2023/06/27 08:55:36;;;;;;;;;;;;;;;;;;4972483;28;8732;-85
2023/06/27 08:58:04;;;;;;;;;;;;;;;;;;4988684;28;8848;-83
2023/06/27 09:00:30;;;;;;;;;;;;;;;;;;4975493;28;7275;-84
2023/06/27 09:02:57;;;;;;;;;;;;;;;;;;4975837;28;7385;-82
2023/06/27 09:05:23;;;;;;;;;;;;;;;;;;4975660;28;8852;-84
2023/06/27 09:07:49;;;;;;;;;;;;;;;;;;4975376;28;9100;-82
2023/06/27 09:10:15;;;;;;;;;;;;;;;;;;4978968;28;7154;-82
2023/06/27 09:12:43;;;;;;;;;;;;;;;;;;4982499;28;8148;-81
2023/06/27 09:15:10;;;;;;;;;;;;;;;;;;4978664;28;7267;-86
2023/06/27 09:17:37;;;;;;;;;;;;;;;;;;4979716;28;8602;-82
2023/06/27 09:20:05;;;;;;;;;;;;;;;;;;4981513;28;8502;-81
2023/06/27 09:22:31;;;;;;;;;;;;;;;;;;5005797;28;7279;-83
2023/06/27 09:25:10;;;;;;;;;;;;;;;;;;4979180;28;8510;-83
2023/06/27 09:27:37;;;;;;;;;;;;;;;;;;4978850;28;7228;-84
2023/06/27 09:30:03;;;;;;;;;;;;;;;;;;4978804;28;8595;-82
2023/06/27 09:32:29;;;;;;;;;;;;;;;;;;4979318;28;8906;-87
2023/06/27 09:34:55;;;;;;;;;;;;;;;;;;4978559;28;8540;-80
2023/06/27 09:37:28;;;;;;;;;;;;;;;;;;4978716;28;8531;-81
2023/06/27 09:39:54;;;;;;;;;;;;;;;;;;4978499;28;8499;-79
2023/06/27 09:42:20;;;;;;;;;;;;;;;;;;4978260;28;8818;-83
2023/06/27 09:44:45;;;;;;;;;;;;;;;;;;4978457;28;8755;-81
2023/06/27 09:47:11;;;;;;;;;;;;;;;;;;4978415;28;8485;-79
2023/06/27 09:49:41;;;;;;;;;;;;;;;;;;4978284;28;8368;-80
2023/06/27 09:52:08;;;;;;;;;;;;;;;;;;4978439;28;7265;-80
2023/06/27 09:54:40;;;;;;;;;;;;;;;;;;4977690;28;7248;-80
2023/06/27 09:57:12;;;;;;;;;;;;;;;;;;4978066;28;8674;-81
2023/06/27 09:59:37;;;;;;;;;;;;;;;;;;4978669;28;8518;-79
2023/06/27 10:02:03;;;;;;;;;;;;;;;;;;4977951;28;8527;-81
2023/06/27 10:04:29;;;;;;;;;;;;;;;;;;4978297;28;8595;-81
2023/06/27 10:06:54;;;;;;;;;;;;;;;;;;4977745;28;8571;-80
2023/06/27 10:09:21;;;;;;;;;;;;;;;;;;4978585;28;7160;-80
2023/06/27 10:11:47;;;;;;;;;;;;;;;;;;4978145;28;8915;-81
2023/06/27 10:14:13;;;;;;;;;;;;;;;;;;4994136;28;9039;-78
2023/06/27 10:16:39;;;;;;;;;;;;;;;;;;4995026;28;7234;-80
2023/06/27 10:19:05;;;;;;;;;;;;;;;;;;4977794;28;8506;-83
2023/06/27 10:21:32;;;;;;;;;;;;;;;;;;4977550;28;8590;-82
2023/06/27 10:24:00;;;;;;;;;;;;;;;;;;4985527;28;8449;-84
2023/06/27 10:26:26;;;;;;;;;;;;;;;;;;5013683;28;7440;-83
2023/06/27 10:28:53;;;;;;;;;;;;;;;;;;5013385;28;8960;-83
2023/06/27 10:31:38;;;;;;;;;;;;;;;;;;5013434;28;7164;-84
2023/06/27 10:34:04;;;;;;;;;;;;;;;;;;5013190;28;8638;-86
2023/06/27 10:36:48;;;;;;;;;;;;;;;;;;5004516;28;8503;-87
2023/06/27 10:39:32;;;;;;;;;;;;;;;;;;5013390;28;8901;-85
2023/06/27 10:42:01;;;;;;;;;;;;;;;;;;5013157;28;8582;-82
2023/06/27 10:44:27;;;;;;;;;;;;;;;;;;5013818;28;7231;-81
2023/06/27 10:47:11;;;;;;;;;;;;;;;;;;5013201;28;9529;-83
2023/06/27 10:49:37;;;;;;;;;;;;;;;;;;5012905;28;8603;-82
2023/06/27 10:52:02;;;;;;;;;;;;;;;;;;5013398;28;8870;-82
2023/06/27 10:54:28;;;;;;;;;;;;;;;;;;5012987;28;8466;-82
2023/06/27 10:56:53;;;;;;;;;;;;;;;;;;5012799;28;8501;-82
2023/06/27 10:59:22;;;;;;;;;;;;;;;;;;5013235;28;7116;-83
2023/06/27 11:01:52;;;;;;;;;;;;;;;;;;5012535;28;8588;-82
2023/06/27 11:04:25;;;;;;;;;;;;;;;;;;5012630;28;8512;-84
2023/06/27 11:07:02;;;;;;;;;;;;;;;;;;5012710;28;8539;-81
2023/06/27 11:09:31;;;;;;;;;;;;;;;;;;5012613;28;6919;-82
2023/06/27 11:12:17;;;;;;;;;;;;;;;;;;5008148;28;8464;-83
2023/06/27 11:14:45;;;;;;;;;;;;;;;;;;4996475;28;8509;-83
2023/06/27 11:17:11;;;;;;;;;;;;;;;;;;5012431;28;8994;-83
2023/06/27 11:19:38;;;;;;;;;;;;;;;;;;4999420;28;8644;-83
2023/06/27 11:22:05;;;;;;;;;;;;;;;;;;5012414;28;9049;-83
2023/06/27 11:24:31;;;;;;;;;;;;;;;;;;5012635;28;8587;-82
2023/06/27 11:26:57;;;;;;;;;;;;;;;;;;5008974;28;8847;-82
2023/06/27 11:29:23;;;;;;;;;;;;;;;;;;4976379;28;8965;-83
2023/06/27 11:31:50;;;;;;;;;;;;;;;;;;4976341;28;7104;-83
2023/06/27 11:34:16;;;;;;;;;;;;;;;;;;4976618;28;7265;-82
2023/06/27 11:36:44;;;;;;;;;;;;;;;;;;4976399;28;8777;-83
2023/06/27 11:39:09;;;;;;;;;;;;;;;;;;4976672;28;8496;-85
2023/06/27 11:41:39;;;;;;;;;;;;;;;;;;4976409;28;8482;-83
2023/06/27 11:44:09;;;;;;;;;;;;;;;;;;4980079;28;8595;-83
2023/06/27 11:46:35;;;;;;;;;;;;;;;;;;5003728;28;8778;-86
2023/06/27 11:49:01;;;;;;;;;;;;;;;;;;5012733;28;7149;-86
2023/06/27 11:51:37;;;;;;;;;;;;;;;;;;5011796;28;8535;-86
2023/06/27 11:54:06;;;;;;;;;;;;;;;;;;5012003;28;7284;-85
2023/06/27 11:56:32;;;;;;;;;;;;;;;;;;5012004;28;8410;-85
2023/06/27 11:58:59;;;;;;;;;;;;;;;;;;5012246;28;8535;-86
2023/06/27 12:01:26;;;;;;;;;;;;;;;;;;5008870;28;8584;-86
2023/06/27 12:03:52;;;;;;;;;;;;;;;;;;5008929;28;8849;-84
2023/06/27 12:06:28;;;;;;;;;;;;;;;;;;5008323;28;8787;-86
2023/06/27 12:08:54;;;;;;;;;;;;;;;;;;5000021;28;9330;-85
2023/06/27 12:11:27;;;;;;;;;;;;;;;;;;4992321;28;8857;-85
2023/06/27 12:13:53;;;;;;;;;;;;;;;;;;4982002;28;8871;-84
2023/06/27 12:16:27;;;;;;;;;;;;;;;;;;4972965;28;9749;-85
2023/06/27 12:19:01;;;;;;;;;;;;;;;;;;4973188;28;8851;-87
2023/06/27 12:21:27;;;;;;;;;;;;;;;;;;4973093;28;8940;-85
2023/06/27 12:23:53;;;;;;;;;;;;;;;;;;4972963;28;7141;-88
2023/06/27 12:26:18;;;;;;;;;;;;;;;;;;4981748;28;7923;-85
2023/06/27 12:28:58;;;;;;;;;;;;;;;;;;5009201;28;7248;-87
2023/06/27 12:31:23;;;;;;;;;;;;;;;;;;5008814;28;7265;-84
2023/06/27 12:33:51;;;;;;;;;;;;;;;;;;5008542;28;8860;-85
2023/06/27 12:36:18;;;;;;;;;;;;;;;;;;5008874;28;8838;-88
2023/06/27 12:38:44;;;;;;;;;;;;;;;;;;5008392;28;8074;-88
2023/06/27 12:41:10;;;;;;;;;;;;;;;;;;5008519;28;8494;-87
2023/06/27 12:43:36;;;;;;;;;;;;;;;;;;5009385;28;8782;-87
2023/06/27 12:46:03;;;;;;;;;;;;;;;;;;5012331;28;7328;-87
2023/06/27 12:48:28;;;;;;;;;;;;;;;;;;5012254;28;7280;-88
2023/06/27 12:50:54;;;;;;;;;;;;;;;;;;5012194;28;7451;-87
2023/06/27 12:53:20;;;;;;;;;;;;;;;;;;5012545;28;7253;-87
2023/06/27 12:55:46;;;;;;;;;;;;;;;;;;5012198;28;8891;-88
2023/06/27 12:58:12;;;;;;;;;;;;;;;;;;5012046;28;8839;-87
2023/06/27 13:00:39;;;;;;;;;;;;;;;;;;5011745;28;8516;-87
2023/06/27 13:03:06;;;;;;;;;;;;;;;;;;5012282;28;9089;-88
2023/06/27 13:05:32;;;;;;;;;;;;;;;;;;5012201;28;8880;-88
2023/06/27 13:07:58;;;;;;;;;;;;;;;;;;5011891;28;8520;-88
2023/06/27 13:10:28;;;;;;;;;;;;;;;;;;5011822;28;7381;-87
2023/06/27 13:12:56;;;;;;;;;;;;;;;;;;5001328;28;9723;-86
2023/06/27 13:15:22;;;;;;;;;;;;;;;;;;4996525;28;8474;-86
2023/06/27 13:17:48;;;;;;;;;;;;;;;;;;4995813;28;8990;-87
2023/06/27 13:20:15;;;;;;;;;;;;;;;;;;4976261;28;8483;-87
2023/06/27 13:22:40;;;;;;;;;;;;;;;;;;4976002;28;8971;-89
2023/06/27 13:25:06;;;;;;;;;;;;;;;;;;4975900;28;8832;-89
2023/06/27 13:27:32;;;;;;;;;;;;;;;;;;4975795;28;7267;-87
2023/06/27 13:30:01;;;;;;;;;;;;;;;;;;4981990;28;8736;-88
2023/06/27 13:32:28;;;;;;;;;;;;;;;;;;4995326;28;8477;-88
2023/06/27 13:34:53;;;;;;;;;;;;;;;;;;4984954;28;8832;-88
2023/06/27 13:37:19;;;;;;;;;;;;;;;;;;4993889;28;8391;-88
2023/06/27 13:39:45;;;;;;;;;;;;;;;;;;4993390;28;8506;-87
2023/06/27 13:42:10;;;;;;;;;;;;;;;;;;5005878;28;7122;-87
2023/06/27 13:44:36;;;;;;;;;;;;;;;;;;5000147;28;8842;-86
2023/06/27 13:47:02;;;;;;;;;;;;;;;;;;5011286;28;8990;-88
2023/06/27 13:49:28;;;;;;;;;;;;;;;;;;5011941;28;8877;-88
2023/06/27 13:51:54;;;;;;;;;;;;;;;;;;5008955;28;7147;-87
2023/06/27 13:54:20;;;;;;;;;;;;;;;;;;4987085;28;8788;-87
2023/06/27 13:56:46;;;;;;;;;;;;;;;;;;5005879;28;8931;-88
2023/06/27 13:59:12;;;;;;;;;;;;;;;;;;5011801;28;8853;-88
2023/06/27 14:01:38;;;;;;;;;;;;;;;;;;5011501;28;8587;-88
2023/06/27 14:04:05;;;;;;;;;;;;;;;;;;5011473;28;9215;-88
2023/06/27 14:06:31;;;;;;;;;;;;;;;;;;4992381;28;7300;-87
2023/06/27 14:08:56;;;;;;;;;;;;;;;;;;4991811;28;8644;-88
2023/06/27 14:11:22;;;;;;;;;;;;;;;;;;4992284;28;8521;-87
2023/06/27 14:13:50;;;;;;;;;;;;;;;;;;4992908;28;9066;-87
2023/06/27 14:16:17;;;;;;;;;;;;;;;;;;5003651;28;7157;-88
2023/06/27 14:18:43;;;;;;;;;;;;;;;;;;5011256;28;7345;-87
2023/06/27 14:21:09;;;;;;;;;;;;;;;;;;5011706;28;8415;-88
2023/06/27 14:23:35;;;;;;;;;;;;;;;;;;5011671;28;8500;-88
2023/06/27 14:26:01;;;;;;;;;;;;;;;;;;5011254;28;8607;-88
2023/06/27 14:28:27;;;;;;;;;;;;;;;;;;5006081;28;8486;-87
2023/06/27 14:30:52;;;;;;;;;;;;;;;;;;4975486;28;8531;-87
2023/06/27 14:33:21;;;;;;;;;;;;;;;;;;4975481;28;7208;-87
2023/06/27 14:35:47;;;;;;;;;;;;;;;;;;4975464;28;8515;-87
2023/06/27 14:38:12;;;;;;;;;;;;;;;;;;4975533;28;8800;-86
2023/06/27 14:40:38;;;;;;;;;;;;;;;;;;4975089;28;8390;-86
2023/06/27 14:43:04;;;;;;;;;;;;;;;;;;4990383;28;8644;-87
2023/06/27 14:45:29;;;;;;;;;;;;;;;;;;5007689;28;7127;-87
2023/06/27 14:47:55;;;;;;;;;;;;;;;;;;4978242;28;8648;-87
2023/06/27 14:50:20;;;;;;;;;;;;;;;;;;4993709;28;7273;-86
2023/06/27 14:52:46;;;;;;;;;;;;;;;;;;5005769;28;8489;-86
2023/06/27 14:55:12;;;;;;;;;;;;;;;;;;5005220;28;8592;-86
2023/06/27 14:57:37;;;;;;;;;;;;;;;;;;4996758;28;8569;-89
2023/06/27 15:00:03;;;;;;;;;;;;;;;;;;4993860;28;8547;-86
2023/06/27 15:02:29;;;;;;;;;;;;;;;;;;4993050;28;7298;-85
2023/06/27 15:04:54;;;;;;;;;;;;;;;;;;5009433;28;7230;-86
2023/06/27 15:07:21;;;;;;;;;;;;;;;;;;5009232;28;8488;-84
2023/06/27 15:09:46;;;;;;;;;;;;;;;;;;5009429;28;8908;-83
2023/06/27 15:12:12;;;;;;;;;;;;;;;;;;5004484;28;8495;-83
2023/06/27 15:14:37;;;;;;;;;;;;;;;;;;4992298;28;8522;-83
2023/06/27 15:17:03;;;;;;;;;;;;;;;;;;4993131;28;7238;-84
2023/06/27 15:19:28;;;;;;;;;;;;;;;;;;4972591;28;8531;-82
2023/06/27 15:21:55;;;;;;;;;;;;;;;;;;4972978;28;8513;-84
2023/06/27 15:24:21;;;;;;;;;;;;;;;;;;4973615;28;8626;-83
2023/06/27 15:26:46;;;;;;;;;;;;;;;;;;4973538;28;9644;-83
2023/06/27 15:29:12;;;;;;;;;;;;;;;;;;4973398;28;8517;-83
2023/06/27 15:31:37;;;;;;;;;;;;;;;;;;4973280;28;8820;-84
2023/06/27 15:34:02;;;;;;;;;;;;;;;;;;4973247;28;8524;-82
2023/06/27 15:36:29;;;;;;;;;;;;;;;;;;4973182;28;8481;-83
2023/06/27 15:38:55;;;;;;;;;;;;;;;;;;4972736;28;9401;-83
2023/06/27 15:41:21;;;;;;;;;;;;;;;;;;4972464;28;7211;-84
2023/06/27 15:43:47;;;;;;;;;;;;;;;;;;4972776;28;7155;-84
2023/06/27 15:46:12;;;;;;;;;;;;;;;;;;4972557;28;8506;-84
2023/06/27 15:48:38;;;;;;;;;;;;;;;;;;4972281;28;8510;-83
2023/06/27 15:51:05;;;;;;;;;;;;;;;;;;4972812;28;8566;-83
2023/06/27 15:53:30;;;;;;;;;;;;;;;;;;4972963;28;8597;-83
2023/06/27 15:55:56;;;;;;;;;;;;;;;;;;4973518;28;8638;-83
2023/06/27 15:58:21;;;;;;;;;;;;;;;;;;4973380;28;8484;-85
2023/06/27 16:00:47;;;;;;;;;;;;;;;;;;4970050;28;8565;-83
2023/06/27 16:03:12;;;;;;;;;;;;;;;;;;4969893;28;8528;-82
2023/06/27 16:05:38;;;;;;;;;;;;;;;;;;4970135;28;7288;-83
2023/06/27 16:08:03;;;;;;;;;;;;;;;;;;4976073;28;8430;-83
2023/06/27 16:10:29;;;;;;;;;;;;;;;;;;4971291;28;8695;-82
2023/06/27 16:12:55;;;;;;;;;;;;;;;;;;4973073;28;7177;-83
2023/06/27 16:15:21;;;;;;;;;;;;;;;;;;4971584;28;7171;-84
2023/06/27 16:17:46;;;;;;;;;;;;;;;;;;4966596;28;8853;-83
2023/06/27 16:20:12;;;;;;;;;;;;;;;;;;4979199;28;7159;-83
2023/06/27 16:22:37;;;;;;;;;;;;;;;;;;4983506;28;8507;-82
2023/06/27 16:25:03;;;;;;;;;;;;;;;;;;4971913;28;8509;-83
2023/06/27 16:27:29;;;;;;;;;;;;;;;;;;4986509;28;8504;-83
2023/06/27 16:29:54;;;;;;;;;;;;;;;;;;4983996;28;8649;-83
2023/06/27 16:32:20;;;;;;;;;;;;;;;;;;4973469;28;8684;-83
2023/06/27 16:34:46;;;;;;;;;;;;;;;;;;4988856;28;8778;-82
2023/06/27 16:37:11;;;;;;;;;;;;;;;;;;4965511;28;9295;-83
2023/06/27 16:39:37;;;;;;;;;;;;;;;;;;4982333;28;8771;-84
2023/06/27 16:42:03;;;;;;;;;;;;;;;;;;4976571;28;8511;-83
2023/06/27 16:44:29;;;;;;;;;;;;;;;;;;4989582;28;8919;-84
2023/06/27 16:46:54;;;;;;;;;;;;;;;;;;4978095;28;7262;-84
2023/06/27 16:49:19;;;;;;;;;;;;;;;;;;4987907;28;8521;-84
2023/06/27 16:51:45;;;;;;;;;;;;;;;;;;4984816;28;8411;-84
2023/06/27 16:54:10;;;;;;;;;;;;;;;;;;4975829;28;8608;-83
2023/06/27 16:56:36;;;;;;;;;;;;;;;;;;4976012;28;8840;-82
2023/06/27 16:59:02;;;;;;;;;;;;;;;;;;4976483;28;9055;-83